createdAt,value
2022-08-17T00:01:22.592Z,20.50
2022-08-17T00:06:06.391Z,20.50
2022-08-17T00:10:57.178Z,20.40
2022-08-17T00:15:48.519Z,20.30
2022-08-17T00:20:39.674Z,20.20
2022-08-17T00:25:30.742Z,20.00
2022-08-17T00:30:21.773Z,20.00
2022-08-17T00:35:12.893Z,19.90
2022-08-17T00:40:04.250Z,19.90
2022-08-17T00:44:54.954Z,19.70
2022-08-17T00:49:45.971Z,19.80
2022-08-17T00:54:42.784Z,19.70
2022-08-17T00:59:28.070Z,19.70
2022-08-17T01:04:19.166Z,19.70
2022-08-17T01:09:09.883Z,19.70
2022-08-17T01:14:01.309Z,19.80
2022-08-17T01:18:52.699Z,19.80
2022-08-17T01:23:43.191Z,19.90
2022-08-17T01:28:56.104Z,19.90
2022-08-17T01:33:25.722Z,19.80
2022-08-17T01:38:27.497Z,19.70
2022-08-17T01:43:07.371Z,19.80
2022-08-17T01:47:58.750Z,19.80
2022-08-17T01:52:50.317Z,19.60
2022-08-17T01:57:41.008Z,19.60
2022-08-17T02:02:32.002Z,19.50
2022-08-17T02:07:27.775Z,19.50
2022-08-17T02:12:40.440Z,19.40
2022-08-17T02:17:04.793Z,19.40
2022-08-17T02:21:55.900Z,19.30
2022-08-17T02:26:47.327Z,19.10
2022-08-17T02:31:38.046Z,19.10
2022-08-17T02:36:29.430Z,19.10
2022-08-17T02:41:20.482Z,19.10
2022-08-17T02:46:11.554Z,19.00
2022-08-17T02:51:04.849Z,18.90
2022-08-17T02:55:53.727Z,18.90
2022-08-17T03:00:44.715Z,18.80
2022-08-17T03:05:35.903Z,18.70
2022-08-17T03:10:26.858Z,18.60
2022-08-17T03:15:17.561Z,18.50
2022-08-17T03:20:08.619Z,18.40
2022-08-17T03:25:00.025Z,18.40
2022-08-17T03:29:51.197Z,18.30
2022-08-17T03:34:42.188Z,18.20
2022-08-17T03:39:33.374Z,18.20
2022-08-17T03:44:24.262Z,18.10
2022-08-17T03:49:15.388Z,18.00
2022-08-17T03:54:08.069Z,18.00
2022-08-17T03:58:57.440Z,18.00
2022-08-17T04:03:48.176Z,18.10
2022-08-17T04:08:39.532Z,18.00
2022-08-17T04:13:30.717Z,18.10
2022-08-17T04:18:21.660Z,18.20
2022-08-17T04:19:56.536Z,18.10
2022-08-17T04:24:47.958Z,18.40
2022-08-17T04:28:16.864Z,18.80
2022-08-17T04:33:07.910Z,18.90
2022-08-17T04:37:53.445Z,18.90
2022-08-17T04:42:44.645Z,19.00
2022-08-17T04:47:35.665Z,19.10
2022-08-17T04:52:43.953Z,19.30
2022-08-17T04:57:17.715Z,19.40
2022-08-17T05:01:56.361Z,19.60
2022-08-17T05:06:47.737Z,19.60
2022-08-17T05:11:45.333Z,19.70
2022-08-17T05:16:29.831Z,19.70
2022-08-17T05:21:20.952Z,19.70
2022-08-17T05:26:29.425Z,19.80
2022-08-17T05:31:02.712Z,19.80
2022-08-17T05:35:54.179Z,19.80
2022-08-17T05:40:44.954Z,19.80
2022-08-17T05:45:56.827Z,20.00
2022-08-17T05:50:30.213Z,20.30
2022-08-17T05:55:18.319Z,20.50
2022-08-17T06:00:10.362Z,20.50
2022-08-17T06:05:00.615Z,20.60
2022-08-17T06:09:51.274Z,20.60
2022-08-17T06:14:42.725Z,20.50
2022-08-17T06:19:33.822Z,20.60
2022-08-17T06:24:24.966Z,20.70
2022-08-17T06:29:19.249Z,21.00
2022-08-17T06:34:06.716Z,21.10
2022-08-17T06:38:58.165Z,21.20
2022-08-17T06:43:49.266Z,21.50
2022-08-17T06:48:40.212Z,21.50
2022-08-17T06:53:31.253Z,21.50
2022-08-17T06:58:22.500Z,21.60
2022-08-17T07:03:13.094Z,22.10
2022-08-17T07:08:04.511Z,22.50
2022-08-17T07:12:55.488Z,21.10
2022-08-17T07:17:48.766Z,23.10
2022-08-17T07:23:00.645Z,23.30
2022-08-17T07:27:28.661Z,23.60
2022-08-17T07:32:19.890Z,23.80
2022-08-17T07:37:10.823Z,23.90
2022-08-17T07:42:01.858Z,24.00
2022-08-17T07:46:54.050Z,24.30
2022-08-17T07:51:44.206Z,24.40
2022-08-17T07:56:35.258Z,24.60
2022-08-17T08:01:42.727Z,24.80
2022-08-17T08:06:17.221Z,25.20
2022-08-17T08:11:08.217Z,25.40
2022-08-17T08:15:59.374Z,25.50
2022-08-17T08:20:54.395Z,25.70
2022-08-17T08:25:42.505Z,25.80
2022-08-17T08:30:33.529Z,25.90
2022-08-17T08:35:23.712Z,26.20
2022-08-17T08:40:14.996Z,26.50
2022-08-17T08:45:06.052Z,26.90
2022-08-17T08:50:06.219Z,27.20
2022-08-17T08:54:47.537Z,27.50
2022-08-17T08:59:44.860Z,27.60
2022-08-17T09:04:29.983Z,27.90
2022-08-17T09:09:21.078Z,28.20
2022-08-17T09:14:29.361Z,28.30
2022-08-17T09:19:05.837Z,28.50
2022-08-17T09:23:54.306Z,28.60
2022-08-17T09:28:45.378Z,28.80
2022-08-17T09:33:36.459Z,28.50
2022-08-17T09:38:32.971Z,28.50
2022-08-17T09:43:18.415Z,28.30
2022-08-17T09:48:09.515Z,28.70
2022-08-17T09:53:00.280Z,28.70
2022-08-17T09:57:52.385Z,28.50
2022-08-17T10:02:42.682Z,28.60
2022-08-17T10:07:33.812Z,28.50
2022-08-17T10:12:30.622Z,28.90
2022-08-17T10:17:15.634Z,28.60
2022-08-17T10:22:38.289Z,28.70
2022-08-17T10:26:58.020Z,28.60
2022-08-17T10:31:49.127Z,28.40
2022-08-17T10:36:40.241Z,28.40
2022-08-17T10:41:31.343Z,28.10
2022-08-17T10:46:32.065Z,28.20
2022-08-17T10:51:13.299Z,28.30
2022-08-17T10:56:04.350Z,28.50
2022-08-17T11:00:55.809Z,28.70
2022-08-17T11:05:46.659Z,28.80
2022-08-17T11:10:37.587Z,28.60
2022-08-17T11:15:31.218Z,28.20
2022-08-17T11:20:19.828Z,28.60
2022-08-17T11:25:10.777Z,28.60
2022-08-17T11:30:03.371Z,28.60
2022-08-17T11:34:52.954Z,28.90
2022-08-17T11:39:44.229Z,28.90
2022-08-17T11:44:35.100Z,29.00
2022-08-17T11:49:26.219Z,28.90
2022-08-17T11:54:34.933Z,28.70
2022-08-17T11:59:07.910Z,28.50
2022-08-17T12:03:59.501Z,28.20
2022-08-17T12:08:56.260Z,28.00
2022-08-17T12:13:41.438Z,28.00
2022-08-17T12:18:32.573Z,28.00
2022-08-17T12:23:23.695Z,27.90
2022-08-17T12:28:20.908Z,28.10
2022-08-17T12:33:05.363Z,28.10
2022-08-17T12:37:56.898Z,27.90
2022-08-17T12:42:47.828Z,28.00
2022-08-17T12:47:38.921Z,27.70
2022-08-17T12:52:29.933Z,27.80
2022-08-17T12:57:21.066Z,27.70
2022-08-17T13:02:11.904Z,27.80
2022-08-17T13:02:58.766Z,27.90
2022-08-17T13:07:50.484Z,27.90
2022-08-17T13:12:40.980Z,27.70
2022-08-17T13:17:32.237Z,27.60
2022-08-17T13:22:23.420Z,27.60
2022-08-17T13:27:14.578Z,27.80
2022-08-17T13:32:14.097Z,27.90
2022-08-17T13:36:57.615Z,28.40
2022-08-17T13:41:47.743Z,28.40
2022-08-17T13:46:38.892Z,29.00
2022-08-17T13:51:29.843Z,29.20
2022-08-17T13:56:39.885Z,29.20
2022-08-17T14:01:13.183Z,28.90
2022-08-17T14:06:03.111Z,29.00
2022-08-17T14:10:53.982Z,29.40
2022-08-17T14:15:13.154Z,29.20
2022-08-17T14:20:04.253Z,29.20
2022-08-17T14:24:55.369Z,29.20
2022-08-17T14:29:46.412Z,29.40
2022-08-17T14:34:37.130Z,29.30
2022-08-17T14:39:28.337Z,29.20
2022-08-17T14:44:19.470Z,29.40
2022-08-17T14:49:11.183Z,29.20
2022-08-17T14:54:01.285Z,29.50
2022-08-17T14:55:51.684Z,29.30
2022-08-17T15:00:42.510Z,29.20
2022-08-17T15:05:33.706Z,29.50
2022-08-17T15:10:26.334Z,29.80
2022-08-17T15:15:15.946Z,29.70
2022-08-17T15:20:15.374Z,29.00
2022-08-17T15:24:58.088Z,29.00
2022-08-17T15:29:49.202Z,28.90
2022-08-17T15:34:39.973Z,28.70
2022-08-17T15:39:31.448Z,28.40
2022-08-17T15:44:35.398Z,28.00
2022-08-17T15:49:13.152Z,27.40
2022-08-17T15:54:23.692Z,27.40
2022-08-17T15:58:55.216Z,27.20
2022-08-17T16:04:31.698Z,26.70
2022-08-17T16:08:37.357Z,26.60
2022-08-17T16:13:28.748Z,26.60
2022-08-17T16:18:19.533Z,26.90
2022-08-17T16:19:06.058Z,27.20
2022-08-17T16:23:56.732Z,27.30
2022-08-17T16:28:48.108Z,27.10
2022-08-17T16:33:38.803Z,27.10
2022-08-17T16:38:30.317Z,27.00
2022-08-17T16:43:21.342Z,27.60
2022-08-17T16:48:12.040Z,28.10
2022-08-17T16:53:03.346Z,27.60
2022-08-17T16:57:51.236Z,26.60
2022-08-17T17:02:40.540Z,26.50
2022-08-17T17:07:31.721Z,26.90
2022-08-17T17:13:04.762Z,26.70
2022-08-17T17:17:13.439Z,26.10
2022-08-17T17:22:04.977Z,26.10
2022-08-17T17:26:55.899Z,25.70
2022-08-17T17:31:46.699Z,25.40
2022-08-17T17:36:38.117Z,25.30
2022-08-17T17:41:28.792Z,25.20
2022-08-17T17:46:29.517Z,25.10
2022-08-17T17:51:10.896Z,25.20
2022-08-17T17:56:02.338Z,25.40
2022-08-17T18:00:53.407Z,25.40
2022-08-17T18:05:44.970Z,25.50
2022-08-17T18:10:35.466Z,25.10
2022-08-17T18:15:27.898Z,24.80
2022-08-17T18:20:17.551Z,24.50
2022-08-17T18:25:08.812Z,24.40
2022-08-17T18:29:59.841Z,24.20
2022-08-17T18:34:50.812Z,24.00
2022-08-17T18:39:44.771Z,23.80
2022-08-17T18:44:32.985Z,23.70
2022-08-17T18:49:23.686Z,23.70
2022-08-17T18:54:14.700Z,23.70
2022-08-17T18:59:06.203Z,23.60
2022-08-17T19:03:56.863Z,23.50
2022-08-17T19:08:48.342Z,23.30
2022-08-17T19:13:39.282Z,23.20
2022-08-17T19:18:30.400Z,23.10
2022-08-17T19:23:21.470Z,23.00
2022-08-17T19:28:23.080Z,23.00
2022-08-17T19:33:03.652Z,23.00
2022-08-17T19:37:54.342Z,22.80
2022-08-17T19:42:45.379Z,22.70
2022-08-17T19:48:05.056Z,22.60
2022-08-17T19:52:27.927Z,22.50
2022-08-17T19:57:19.038Z,22.10
2022-08-17T20:02:09.597Z,22.10
2022-08-17T20:07:01.099Z,22.00
2022-08-17T20:11:51.734Z,22.00
2022-08-17T20:16:43.228Z,21.80
2022-08-17T20:21:34.046Z,21.70
2022-08-17T20:26:25.034Z,21.60
2022-08-17T20:31:16.343Z,21.50
2022-08-17T20:36:07.171Z,21.40
2022-08-17T20:40:59.904Z,21.20
2022-08-17T20:45:49.553Z,21.10
2022-08-17T20:50:40.753Z,21.10
2022-08-17T20:55:32.914Z,20.90
2022-08-17T21:00:22.910Z,20.80
2022-08-17T21:05:13.792Z,20.70
2022-08-17T21:10:09.748Z,20.70
2022-08-17T21:14:55.663Z,20.60
2022-08-17T21:20:12.778Z,20.50
2022-08-17T21:24:38.111Z,20.40
2022-08-17T21:29:40.656Z,20.30
2022-08-17T21:34:20.291Z,20.30
2022-08-17T21:39:10.964Z,20.20
2022-08-17T21:44:02.001Z,20.10
2022-08-17T21:48:54.850Z,20.00
2022-08-17T21:53:41.363Z,20.00
2022-08-17T21:58:32.120Z,19.90
2022-08-17T22:03:23.669Z,19.90
2022-08-17T22:08:17.159Z,19.80
2022-08-17T22:13:17.969Z,19.70
2022-08-17T22:17:56.427Z,19.60
2022-08-17T22:22:47.855Z,19.50
2022-08-17T22:27:38.847Z,19.50
2022-08-17T22:32:30.001Z,18.00
2022-08-17T22:37:28.160Z,19.30
2022-08-17T22:42:11.703Z,19.30
2022-08-17T22:47:03.155Z,19.30
2022-08-17T22:51:54.103Z,19.30
2022-08-17T22:56:45.832Z,19.20
2022-08-17T23:01:36.371Z,19.20
2022-08-17T23:06:28.361Z,19.10
2022-08-17T23:11:18.273Z,19.00
2022-08-17T23:16:09.542Z,19.00
2022-08-17T23:21:00.468Z,18.90
2022-08-17T23:25:51.615Z,18.90
2022-08-17T23:30:42.733Z,19.00
2022-08-17T23:35:41.391Z,19.10
2022-08-17T23:40:24.775Z,19.10
2022-08-17T23:45:15.732Z,19.10
2022-08-17T23:50:07.009Z,19.00
2022-08-17T23:54:57.992Z,18.80
2022-08-17T23:59:49.052Z,18.70
